| time (UTC) | temp F | wind direction | speed knots | gust knots | rain 1hr in | rain 24hr in | rain mn in | humidity % | barometer mb |
| 20260507071853 | 53 | 250 | 2.6 | 4.3 | 0.00 | 0.00 | 0.00 | 87 | 1020.2 |
| 20260507070359 | 53 | 219 | 0.9 | 6.1 | 0.00 | 0.00 | 0.00 | 87 | 1020.0 |
| 20260507064845 | 53 | 238 | 2.6 | 5.2 | 0.00 | 0.00 | 0.00 | 87 | 1020.1 |
| 20260507063350 | 53 | 199 | 2.6 | 6.1 | 0.00 | 0.00 | 0.00 | 87 | 1019.9 |
| 20260507061830 | 53 | 287 | 2.6 | 7.0 | 0.00 | 0.00 | 0.00 | 86 | 1020.0 |
| 20260507060329 | 53 | 241 | 1.7 | 5.2 | 0.00 | 0.00 | 0.00 | 86 | 1019.8 |
| 20260507054831 | 54 | 200 | 3.5 | 6.1 | 0.00 | 0.00 | 0.00 | 85 | 1020.0 |
| 20260507053333 | 54 | 270 | 1.7 | 7.0 | 0.00 | 0.00 | 0.00 | 84 | 1019.9 |
| 20260507051856 | 55 | 277 | 2.6 | 7.8 | 0.00 | 0.00 | 0.00 | 82 | 1020.0 |
| 20260507050321 | 55 | 232 | 2.6 | 7.0 | 0.00 | 0.00 | 0.00 | 81 | 1019.8 |
| 20260507044826 | 55 | 257 | 3.5 | 7.8 | 0.00 | 0.00 | 0.00 | 81 | 1019.9 |
| 20260507043346 | 55 | 273 | 0.9 | 1.7 | 0.00 | 0.00 | 0.00 | 81 | 1019.9 |
| 20260507041827 | 56 | 273 | 1.7 | 4.3 | 0.00 | 0.00 | 0.00 | 80 | 1019.8 |
| 20260507040329 | 56 | 233 | 1.7 | 5.2 | 0.00 | 0.00 | 0.00 | 80 | 1020.0 |
| 20260507034856 | 56 | 268 | 1.7 | 4.3 | 0.00 | 0.00 | 0.00 | 79 | 1019.8 |
| 20260507033336 | 56 | 259 | 1.7 | 5.2 | 0.00 | 0.00 | 0.00 | 79 | 1019.8 |
| 20260507031822 | 56 | 212 | 2.6 | 5.2 | 0.00 | 0.00 | 0.00 | 78 | 1019.6 |
| 20260507030328 | 56 | 209 | 3.5 | 8.7 | 0.00 | 0.00 | 0.00 | 78 | 1019.4 |
| 20260507024825 | 57 | 247 | 3.5 | 7.8 | 0.00 | 0.00 | 0.00 | 77 | 1019.3 |
| 20260507023323 | 57 | 254 | 3.5 | 7.8 | 0.00 | 0.00 | 0.00 | 76 | 1019.3 |
| 20260507021853 | 58 | 226 | 3.5 | 7.0 | 0.00 | 0.00 | 0.00 | 76 | 1019.2 |
| 20260507020329 | 57 | 234 | 1.7 | 4.3 | 0.00 | 0.00 | 0.00 | 76 | 1019.3 |
| 20260507014830 | 57 | 260 | 2.6 | 8.7 | 0.00 | 0.00 | 0.00 | 75 | 1019.2 |
| 20260507013332 | 57 | 220 | 2.6 | 6.1 | 0.00 | 0.00 | 0.00 | 76 | 1019.2 |
| 20260507011839 | 58 | 221 | 4.3 | 12.2 | 0.00 | 0.00 | 0.00 | 75 | 1019.3 |
| 20260507010345 | 58 | 245 | 1.7 | 6.1 | 0.00 | 0.00 | 0.00 | 75 | 1019.3 |
| 20260507004830 | 58 | 285 | 2.6 | 6.1 | 0.00 | 0.00 | 0.00 | 75 | 1019.3 |
| 20260507003357 | 58 | 215 | 2.6 | 7.0 | 0.00 | 0.00 | 0.00 | 75 | 1019.4 |
| 20260507001843 | 58 | 284 | 2.6 | 7.0 | 0.00 | 0.00 | 0.00 | 75 | 1019.4 |
| 20260507000351 | 58 | 252 | 3.5 | 7.8 | 0.00 | 0.00 | 0.00 | 74 | 1019.4 |
| 20260506234849 | 58 | 256 | 4.3 | 7.0 | 0.00 | 0.00 | 0.00 | 74 | 1019.4 |
| 20260506233324 | 58 | 247 | 3.5 | 7.8 | 0.00 | 0.00 | 0.00 | 74 | 1019.3 |
| 20260506231826 | 58 | 215 | 2.6 | 7.0 | 0.00 | 0.00 | 0.00 | 74 | 1019.5 |
| 20260506230328 | 57 | 290 | 5.2 | 10.4 | 0.00 | 0.00 | 0.00 | 74 | 1019.4 |
| 20260506224828 | 57 | 232 | 3.5 | 7.8 | 0.00 | 0.00 | 0.00 | 75 | 1019.4 |
| 20260506223328 | 57 | 231 | 4.3 | 8.7 | 0.00 | 0.00 | 0.00 | 74 | 1019.5 |
| 20260506221830 | 57 | 273 | 4.3 | 8.7 | 0.00 | 0.00 | 0.00 | 75 | 1019.6 |
| 20260506220332 | 57 | 225 | 3.5 | 7.0 | 0.00 | 0.00 | 0.00 | 76 | 1019.6 |
| 20260506214854 | 57 | 246 | 2.6 | 6.1 | 0.00 | 0.00 | 0.00 | 76 | 1019.7 |
| 20260506213340 | 57 | 276 | 1.7 | 7.8 | 0.00 | 0.00 | 0.00 | 76 | 1019.6 |
| 20260506211826 | 57 | 267 | 2.6 | 10.4 | 0.00 | 0.00 | 0.00 | 76 | 1019.6 |
| 20260506210352 | 57 | 260 | 2.6 | 7.0 | 0.00 | 0.00 | 0.00 | 77 | 1019.7 |
| 20260506204849 | 57 | 204 | 2.6 | 6.1 | 0.00 | 0.00 | 0.00 | 78 | 1019.8 |
| 20260506203334 | 56 | 270 | 4.3 | 9.6 | 0.00 | 0.00 | 0.00 | 78 | 1019.8 |
| 20260506201841 | 56 | 230 | 2.6 | 6.1 | 0.00 | 0.00 | 0.00 | 80 | 1019.8 |
| 20260506200336 | 56 | 254 | 2.6 | 7.0 | 0.00 | 0.00 | 0.00 | 80 | 1019.7 |
| 20260506194843 | 55 | 250 | 2.6 | 7.8 | 0.00 | 0.00 | 0.00 | 80 | 1019.7 |
| 20260506193327 | 55 | 256 | 1.7 | 5.2 | 0.00 | 0.00 | 0.00 | 82 | 1019.5 |
| 20260506191829 | 55 | 202 | 2.6 | 5.2 | 0.00 | 0.00 | 0.00 | 83 | 1019.4 |
| 20260506190330 | 55 | 237 | 1.7 | 5.2 | 0.00 | 0.00 | 0.00 | 84 | 1019.5 |
| 20260506184837 | 55 | 248 | 3.5 | 6.1 | 0.00 | 0.00 | 0.00 | 85 | 1019.5 |
| 20260506183344 | 55 | 277 | 0.9 | 7.8 | 0.00 | 0.00 | 0.00 | 85 | 1019.5 |
| 20260506181842 | 55 | 245 | 1.7 | 6.1 | 0.00 | 0.00 | 0.00 | 86 | 1019.2 |
| 20260506180326 | 55 | 227 | 2.6 | 4.3 | 0.00 | 0.00 | 0.00 | 87 | 1019.1 |
| 20260506174828 | 54 | 247 | 4.3 | 7.8 | 0.00 | 0.00 | 0.00 | 88 | 1019.1 |
| 20260506173326 | 54 | 213 | 0.9 | 3.5 | 0.00 | 0.00 | 0.00 | 91 | 1019.2 |
| 20260506171828 | 54 | 264 | 1.7 | 3.5 | 0.00 | 0.00 | 0.00 | 92 | 1019.4 |
| 20260506170334 | 54 | 262 | 0.9 | 4.3 | 0.00 | 0.00 | 0.00 | 92 | 1019.3 |
| 20260506164832 | 53 | 265 | 2.6 | 4.3 | 0.00 | 0.00 | 0.00 | 92 | 1019.1 |
| 20260506163333 | 54 | 284 | 2.6 | 4.3 | 0.00 | 0.00 | 0.00 | 92 | 1018.8 |
| 20260506161835 | 53 | 223 | 0.9 | 5.2 | 0.00 | 0.00 | 0.00 | 93 | 1018.4 |
| 20260506160336 | 53 | 229 | 2.6 | 5.2 | 0.00 | 0.00 | 0.00 | 92 | 1018.7 |
| 20260506154843 | 53 | 254 | 0.9 | 4.3 | 0.00 | 0.00 | 0.00 | 92 | 1018.9 |
| 20260506153327 | 53 | 244 | 2.6 | 5.2 | 0.00 | 0.00 | 0.00 | 92 | 1018.8 |
| 20260506151828 | 53 | 250 | 2.6 | 4.3 | 0.00 | 0.00 | 0.00 | 92 | 1018.5 |
| 20260506150330 | 53 | 253 | 2.6 | 6.1 | 0.00 | 0.00 | 0.00 | 91 | 1018.6 |
| 20260506144832 | 53 | 263 | 2.6 | 4.3 | 0.00 | 0.00 | 0.00 | 91 | 1018.8 |
| 20260506143337 | 53 | 249 | 2.6 | 4.3 | 0.00 | 0.00 | 0.00 | 91 | 1018.4 |
| 20260506141839 | 54 | 216 | 2.6 | 4.3 | 0.00 | 0.00 | 0.00 | 91 | 1018.1 |
| 20260506140337 | 54 | 224 | 0.9 | 2.6 | 0.00 | 0.00 | 0.00 | 90 | 1018.2 |
| 20260506134822 | 54 | 193 | 1.7 | 4.3 | 0.00 | 0.00 | 0.00 | 89 | 1018.0 |
| 20260506133324 | 54 | 219 | 0.9 | 4.3 | 0.00 | 0.00 | 0.00 | 89 | 1018.1 |
| 20260506131825 | 54 | 219 | 1.7 | 3.5 | 0.00 | 0.00 | 0.00 | 89 | 1017.9 |
| 20260506130326 | 54 | 227 | 0.9 | 3.5 | 0.00 | 0.00 | 0.00 | 89 | 1017.8 |
| 20260506124828 | 54 | 234 | 0.0 | 2.6 | 0.00 | 0.00 | 0.00 | 89 | 1017.7 |
| 20260506123329 | 54 | 234 | 1.7 | 2.6 | 0.00 | 0.00 | 0.00 | 89 | 1017.6 |
| 20260506121829 | 54 | 234 | 0.9 | 3.5 | 0.00 | 0.00 | 0.00 | 88 | 1017.5 |
| 20260506120330 | 54 | 234 | 2.6 | 4.3 | 0.00 | 0.00 | 0.00 | 87 | 1017.6 |
| 20260506114835 | 54 | 202 | 2.6 | 4.3 | 0.00 | 0.00 | 0.00 | 87 | 1017.4 |
| 20260506113340 | 54 | 246 | 1.7 | 4.3 | 0.00 | 0.00 | 0.00 | 86 | 1017.5 |
| 20260506111843 | 54 | 338 | 2.6 | 7.0 | 0.00 | 0.00 | 0.00 | 85 | 1017.4 |
| 20260506110347 | 54 | 249 | 2.6 | 7.0 | 0.00 | 0.00 | 0.00 | 85 | 1017.4 |
| 20260506104848 | 54 | 251 | 0.9 | 6.1 | 0.00 | 0.00 | 0.00 | 84 | 1017.2 |
| 20260506103329 | 54 | 241 | 1.7 | 5.2 | 0.00 | 0.00 | 0.00 | 84 | 1017.0 |
| 20260506101830 | 55 | 279 | 1.7 | 5.2 | 0.00 | 0.00 | 0.00 | 84 | 1017.0 |
| 20260506100331 | 55 | 258 | 1.7 | 7.0 | 0.00 | 0.00 | 0.00 | 83 | 1016.8 |
| 20260506094833 | 55 | 246 | 4.3 | 8.7 | 0.00 | 0.00 | 0.00 | 83 | 1016.7 |
| 20260506093335 | 55 | 242 | 2.6 | 7.0 | 0.00 | 0.00 | 0.00 | 83 | 1016.7 |
| 20260506091842 | 55 | 236 | 1.7 | 5.2 | 0.00 | 0.00 | 0.00 | 83 | 1016.5 |
| 20260506090326 | 55 | 235 | 0.9 | 5.2 | 0.00 | 0.00 | 0.00 | 83 | 1016.4 |
| 20260506084849 | 56 | 252 | 1.7 | 5.2 | 0.00 | 0.00 | 0.00 | 82 | 1016.3 |
| 20260506083329 | 56 | 261 | 2.6 | 7.8 | 0.00 | 0.00 | 0.00 | 82 | 1016.1 |
| 20260506081831 | 56 | 253 | 1.7 | 4.3 | 0.00 | 0.00 | 0.00 | 82 | 1016.2 |
| 20260506080332 | 56 | 246 | 2.6 | 5.2 | 0.00 | 0.00 | 0.00 | 82 | 1016.2 |
| 20260506073356 | 56 | 190 | 1.7 | 5.2 | 0.00 | 0.00 | 0.00 | 83 | 1016.0 |